createdAt,value
2019-01-13T00:01:17.951Z,7.80
2019-01-13T00:03:47.314Z,7.70
2019-01-13T00:06:16.719Z,7.80
2019-01-13T00:08:46.104Z,8.00
2019-01-13T00:11:15.462Z,8.00
2019-01-13T00:13:44.867Z,7.90
2019-01-13T00:16:14.220Z,7.80
2019-01-13T00:18:43.654Z,7.80
2019-01-13T00:21:13.103Z,7.80
2019-01-13T00:23:42.473Z,7.70
2019-01-13T00:26:11.960Z,7.70
2019-01-13T00:28:41.363Z,7.70
2019-01-13T00:31:10.952Z,7.70
2019-01-13T00:33:40.299Z,7.80
2019-01-13T00:36:09.699Z,7.70
2019-01-13T00:38:39.146Z,7.70
2019-01-13T00:41:08.546Z,7.70
2019-01-13T00:43:37.963Z,7.70
2019-01-13T00:46:07.291Z,7.70
2019-01-13T00:48:36.734Z,7.70
2019-01-13T00:51:06.219Z,7.70
2019-01-13T00:53:35.643Z,7.80
2019-01-13T00:56:05.098Z,7.70
2019-01-13T00:58:34.413Z,7.80
2019-01-13T01:01:04.007Z,7.70
2019-01-13T01:03:33.370Z,7.80
2019-01-13T01:06:02.973Z,7.80
2019-01-13T01:08:32.271Z,8.60
2019-01-13T01:11:01.615Z,8.70
2019-01-13T01:13:31.036Z,8.50
2019-01-13T01:16:00.543Z,8.20
2019-01-13T01:18:29.929Z,8.10
2019-01-13T01:20:59.344Z,8.00
2019-01-13T01:23:29.673Z,8.00
2019-01-13T01:25:59.023Z,7.90
2019-01-13T01:28:28.422Z,7.90
2019-01-13T01:30:58.069Z,7.90
2019-01-13T01:33:27.443Z,7.90
2019-01-13T01:35:57.046Z,7.80
2019-01-13T01:38:26.453Z,7.90
2019-01-13T01:40:55.946Z,7.90
2019-01-13T01:43:25.395Z,7.80
2019-01-13T01:45:54.816Z,7.80
2019-01-13T01:48:26.804Z,7.80
2019-01-13T01:50:56.197Z,7.90
2019-01-13T01:53:25.607Z,7.90
2019-01-13T01:55:54.990Z,7.90
2019-01-13T01:58:24.368Z,7.90
2019-01-13T02:00:53.697Z,7.90
2019-01-13T02:03:23.086Z,7.90
2019-01-13T02:05:52.520Z,7.80
2019-01-13T02:08:21.913Z,7.80
2019-01-13T02:10:51.255Z,7.70
2019-01-13T02:13:20.648Z,7.70
2019-01-13T02:15:49.987Z,7.80
2019-01-13T02:18:19.348Z,7.80
2019-01-13T02:20:48.693Z,7.80
2019-01-13T02:23:18.086Z,7.80
2019-01-13T02:25:47.490Z,7.80
2019-01-13T02:28:16.793Z,7.80
2019-01-13T02:30:49.190Z,7.80
2019-01-13T02:33:17.185Z,7.80
2019-01-13T02:35:46.592Z,7.80
2019-01-13T02:38:15.937Z,7.80
2019-01-13T02:40:45.307Z,7.80
2019-01-13T02:43:14.655Z,7.80
2019-01-13T02:45:44.060Z,7.80
2019-01-13T02:48:13.448Z,7.80
2019-01-13T02:50:42.815Z,7.80
2019-01-13T02:53:12.221Z,7.90
2019-01-13T02:55:41.761Z,7.80
2019-01-13T02:58:11.136Z,7.90
2019-01-13T03:00:40.504Z,8.00
2019-01-13T03:03:09.805Z,7.90
2019-01-13T03:05:39.190Z,7.90
2019-01-13T03:08:08.561Z,7.90
2019-01-13T03:10:37.911Z,7.90
2019-01-13T03:13:07.248Z,7.80
2019-01-13T03:15:36.631Z,7.80
2019-01-13T03:18:05.977Z,7.90
2019-01-13T03:20:35.283Z,7.80
2019-01-13T03:23:04.772Z,7.80
2019-01-13T03:25:34.094Z,7.90
2019-01-13T03:28:03.464Z,8.00
2019-01-13T03:30:32.822Z,8.00
2019-01-13T03:33:02.166Z,7.90
2019-01-13T03:35:31.497Z,7.90
2019-01-13T03:38:00.844Z,8.00
2019-01-13T03:40:30.208Z,8.00
2019-01-13T03:42:59.515Z,8.00
2019-01-13T03:45:28.854Z,8.00
2019-01-13T03:47:58.351Z,7.90
2019-01-13T03:50:27.678Z,8.00
2019-01-13T03:52:57.086Z,8.00
2019-01-13T03:55:26.472Z,8.00
2019-01-13T03:57:56.707Z,8.00
2019-01-13T04:00:26.529Z,8.00
2019-01-13T04:02:55.905Z,8.10
2019-01-13T04:05:25.328Z,8.00
2019-01-13T04:07:54.697Z,8.10
2019-01-13T04:10:24.034Z,8.10
2019-01-13T04:12:53.366Z,8.10
2019-01-13T04:15:44.200Z,8.00
2019-01-13T04:18:13.535Z,8.10
2019-01-13T04:20:42.850Z,8.10
2019-01-13T04:23:12.281Z,8.10
2019-01-13T04:25:41.610Z,8.10
2019-01-13T04:28:10.943Z,8.10
2019-01-13T04:30:40.271Z,8.10
2019-01-13T04:33:09.574Z,8.10
2019-01-13T04:35:38.927Z,8.10
2019-01-13T04:38:08.249Z,8.20
2019-01-13T04:40:37.621Z,8.20
2019-01-13T04:43:06.996Z,8.10
2019-01-13T04:45:36.402Z,8.10
2019-01-13T04:48:05.704Z,8.10
2019-01-13T04:50:35.076Z,8.10
2019-01-13T04:53:04.740Z,8.10
2019-01-13T04:55:34.089Z,8.10
2019-01-13T04:58:03.445Z,8.10
2019-01-13T05:00:32.781Z,8.10
2019-01-13T05:03:02.109Z,8.00
2019-01-13T05:05:31.411Z,8.10
2019-01-13T05:08:00.745Z,8.10
2019-01-13T05:10:30.096Z,8.00
2019-01-13T05:12:59.439Z,8.00
2019-01-13T05:15:28.704Z,8.00
2019-01-13T05:17:58.008Z,8.10
2019-01-13T05:20:27.671Z,8.10
2019-01-13T05:22:56.961Z,8.10
2019-01-13T05:25:26.361Z,8.10
2019-01-13T05:27:55.695Z,8.20
2019-01-13T05:30:25.085Z,8.20
2019-01-13T05:32:54.393Z,8.10
2019-01-13T05:35:23.728Z,8.10
2019-01-13T05:37:53.073Z,8.20
2019-01-13T05:40:22.627Z,8.20
2019-01-13T05:42:52.091Z,8.20
2019-01-13T05:45:22.092Z,8.20
2019-01-13T05:47:51.479Z,8.10
2019-01-13T05:50:20.968Z,8.10
2019-01-13T05:52:52.163Z,8.20
2019-01-13T05:55:21.512Z,8.10
2019-01-13T05:57:51.704Z,8.20
2019-01-13T06:00:23.465Z,8.20
2019-01-13T06:02:52.845Z,8.10
2019-01-13T06:05:22.093Z,8.20
2019-01-13T06:07:51.586Z,8.10
2019-01-13T06:10:21.181Z,8.10
2019-01-13T06:12:50.500Z,8.10
2019-01-13T06:15:21.880Z,8.20
2019-01-13T06:17:51.236Z,8.20
2019-01-13T06:20:22.200Z,8.10
2019-01-13T06:22:51.723Z,8.20
2019-01-13T06:25:21.064Z,8.20
2019-01-13T06:27:50.543Z,8.20
2019-01-13T06:30:21.548Z,8.20
2019-01-13T06:32:50.905Z,8.20
2019-01-13T06:35:20.333Z,8.20
2019-01-13T06:37:49.649Z,8.30
2019-01-13T06:40:20.648Z,8.30
2019-01-13T06:42:49.999Z,8.30
2019-01-13T06:45:21.460Z,8.20
2019-01-13T06:47:51.172Z,8.30
2019-01-13T06:50:20.622Z,8.30
2019-01-13T06:52:50.153Z,8.30
2019-01-13T06:55:19.500Z,8.30
2019-01-13T06:57:48.848Z,8.20
2019-01-13T07:00:26.150Z,8.30
2019-01-13T07:02:55.694Z,8.20
2019-01-13T07:05:25.082Z,8.20
2019-01-13T07:07:54.440Z,8.30
2019-01-13T07:10:23.908Z,8.30
2019-01-13T07:12:53.474Z,8.30
2019-01-13T07:15:23.235Z,8.30
2019-01-13T07:17:52.575Z,8.30
2019-01-13T07:20:22.541Z,8.30
2019-01-13T07:22:51.867Z,8.30
2019-01-13T07:25:21.244Z,8.40
2019-01-13T07:27:50.623Z,8.30
2019-01-13T07:30:22.347Z,8.40
2019-01-13T07:32:51.833Z,8.40
2019-01-13T07:35:21.197Z,8.40
2019-01-13T07:37:50.578Z,8.30
2019-01-13T07:40:21.425Z,8.40
2019-01-13T07:42:50.853Z,8.30
2019-01-13T07:45:22.232Z,8.40
2019-01-13T07:47:51.599Z,8.40
2019-01-13T07:50:20.922Z,8.40
2019-01-13T07:52:50.263Z,8.50
2019-01-13T07:55:21.359Z,8.50
2019-01-13T07:57:50.747Z,8.60
2019-01-13T08:00:25.360Z,8.50
2019-01-13T08:02:54.703Z,8.50
2019-01-13T08:05:24.055Z,8.50
2019-01-13T08:07:53.415Z,8.60
2019-01-13T08:10:22.883Z,8.60
2019-01-13T08:12:52.271Z,8.60
2019-01-13T08:15:21.864Z,8.60
2019-01-13T08:17:51.294Z,8.60
2019-01-13T08:20:23.856Z,8.60
2019-01-13T08:22:53.361Z,8.60
2019-01-13T08:25:23.085Z,8.60
2019-01-13T08:27:52.483Z,8.60
2019-01-13T08:30:21.984Z,8.60
2019-01-13T08:32:51.356Z,8.70
2019-01-13T08:35:20.799Z,8.50
2019-01-13T08:37:50.192Z,8.60
2019-01-13T08:40:21.390Z,8.70
2019-01-13T08:42:50.944Z,8.80
2019-01-13T08:45:20.648Z,8.70
2019-01-13T08:47:50.010Z,8.70
2019-01-13T08:50:21.128Z,8.80
2019-01-13T08:52:50.615Z,8.70
2019-01-13T08:55:20.367Z,8.70
2019-01-13T08:57:49.742Z,8.80
2019-01-13T09:00:21.344Z,8.70
2019-01-13T09:02:50.732Z,8.80
2019-01-13T09:05:20.157Z,8.80
2019-01-13T09:07:49.563Z,8.80
2019-01-13T09:10:19.350Z,8.90
2019-01-13T09:12:48.830Z,9.00
2019-01-13T09:15:20.235Z,8.90
2019-01-13T09:17:49.762Z,8.90
2019-01-13T09:20:21.214Z,8.90
2019-01-13T09:22:50.703Z,8.90
2019-01-13T09:25:20.123Z,8.90
2019-01-13T09:27:49.542Z,8.90
2019-01-13T09:30:23.826Z,8.90
2019-01-13T09:32:53.247Z,8.90
2019-01-13T09:35:22.743Z,9.00
2019-01-13T09:37:52.272Z,9.00
2019-01-13T09:40:24.298Z,9.00
2019-01-13T09:42:53.713Z,9.00
2019-01-13T09:45:23.190Z,9.00
2019-01-13T09:47:52.604Z,9.00
2019-01-13T09:50:22.315Z,9.00
2019-01-13T09:52:51.857Z,8.90
2019-01-13T09:55:22.210Z,9.00
2019-01-13T09:57:51.682Z,9.00
2019-01-13T10:00:26.868Z,9.00
2019-01-13T10:02:56.252Z,8.90
2019-01-13T10:05:25.616Z,9.70
2019-01-13T10:07:57.254Z,10.50
2019-01-13T10:10:26.727Z,10.70
2019-01-13T10:12:56.163Z,10.70
2019-01-13T10:15:25.610Z,11.30
2019-01-13T10:17:55.187Z,12.00
2019-01-13T10:20:24.617Z,12.10
2019-01-13T10:22:54.049Z,12.10
2019-01-13T10:25:23.602Z,12.70
2019-01-13T10:27:53.137Z,13.10
2019-01-13T10:30:30.839Z,12.80
2019-01-13T10:33:00.557Z,13.00
2019-01-13T10:35:30.128Z,13.20
2019-01-13T10:37:59.692Z,13.00
2019-01-13T10:40:30.589Z,12.80
2019-01-13T10:43:00.392Z,12.20
2019-01-13T10:45:29.893Z,12.10
2019-01-13T10:47:59.452Z,12.50
2019-01-13T10:50:30.331Z,12.70
2019-01-13T10:53:01.953Z,12.60
2019-01-13T10:55:31.337Z,12.40
2019-01-13T10:58:00.714Z,12.70
2019-01-13T11:00:31.785Z,12.80
2019-01-13T11:03:02.283Z,12.50
2019-01-13T11:05:32.250Z,12.30
2019-01-13T11:08:01.967Z,12.30
2019-01-13T11:10:31.568Z,12.10
2019-01-13T11:13:01.080Z,12.20
2019-01-13T11:15:30.497Z,12.10
2019-01-13T11:17:59.901Z,11.60
2019-01-13T11:20:32.016Z,11.10
2019-01-13T11:23:01.595Z,10.30
2019-01-13T11:25:30.975Z,10.10
2019-01-13T11:28:00.519Z,9.80
2019-01-13T11:30:30.089Z,9.70
2019-01-13T11:32:59.563Z,9.90
2019-01-13T11:35:28.907Z,9.80
2019-01-13T11:37:58.308Z,9.90
2019-01-13T11:40:28.904Z,9.90
2019-01-13T11:42:58.381Z,9.80
2019-01-13T11:45:27.767Z,9.70
2019-01-13T11:47:57.295Z,9.70
2019-01-13T11:50:27.394Z,9.70
2019-01-13T11:52:57.034Z,9.80
2019-01-13T11:55:26.502Z,9.80
2019-01-13T11:57:56.155Z,9.80
2019-01-13T12:00:43.150Z,10.00
2019-01-13T12:03:16.755Z,9.90
2019-01-13T12:05:44.055Z,9.70
2019-01-13T12:08:13.595Z,9.60
2019-01-13T12:10:43.065Z,9.60
2019-01-13T12:13:13.417Z,9.70
2019-01-13T12:15:42.880Z,9.60
2019-01-13T12:18:12.487Z,9.60
2019-01-13T12:20:42.026Z,9.60
2019-01-13T12:23:12.438Z,9.60
2019-01-13T12:25:42.348Z,9.70
2019-01-13T12:28:12.538Z,9.70
2019-01-13T12:30:41.981Z,9.60
2019-01-13T12:33:11.417Z,9.40
2019-01-13T12:35:40.834Z,9.40
2019-01-13T12:38:10.336Z,9.50
2019-01-13T12:40:40.357Z,10.00
2019-01-13T12:43:09.928Z,10.70
2019-01-13T12:45:39.549Z,11.30
2019-01-13T12:48:09.268Z,11.50
2019-01-13T12:50:38.846Z,11.70
2019-01-13T12:53:08.370Z,11.60
2019-01-13T12:55:37.963Z,12.40
2019-01-13T12:58:07.539Z,12.80
2019-01-13T13:00:37.044Z,13.00
2019-01-13T13:03:06.635Z,13.00
2019-01-13T13:05:36.284Z,12.50
2019-01-13T13:08:06.071Z,11.60
2019-01-13T13:10:43.721Z,11.20
2019-01-13T13:13:13.793Z,10.60
2019-01-13T13:15:43.231Z,10.30
2019-01-13T13:18:12.737Z,10.20
2019-01-13T13:20:42.224Z,10.00
2019-01-13T13:23:11.693Z,9.90
2019-01-13T13:25:41.379Z,9.80
2019-01-13T13:28:11.054Z,9.70
2019-01-13T13:30:40.629Z,9.70
2019-01-13T13:33:10.901Z,9.70
2019-01-13T13:35:40.450Z,9.50
2019-01-13T13:38:10.123Z,9.60
2019-01-13T13:40:39.712Z,9.50
2019-01-13T13:43:09.363Z,9.50
2019-01-13T13:45:38.998Z,9.30
2019-01-13T13:48:08.687Z,9.40
2019-01-13T13:50:38.242Z,9.40
2019-01-13T13:53:07.742Z,9.50
2019-01-13T13:55:37.195Z,9.40
2019-01-13T13:58:06.852Z,9.30
2019-01-13T14:00:38.167Z,9.30
2019-01-13T14:03:07.692Z,9.30
2019-01-13T14:05:37.422Z,9.20
2019-01-13T14:08:07.407Z,9.10
2019-01-13T14:10:39.315Z,9.20
2019-01-13T14:13:08.747Z,9.20
2019-01-13T14:15:38.148Z,9.20
2019-01-13T14:18:07.760Z,9.30
2019-01-13T14:20:37.269Z,9.20
2019-01-13T14:23:06.685Z,9.30
2019-01-13T14:25:36.052Z,9.30
